sensor_id;sensor_type;location;lat;lon;timestamp;pressure;altitude;pressure_sealevel;temperature;humidity
52625;BME280;38519;52.540;13.410;2022-08-01T00:02:03;100534.41;;;21.49;63.91
52625;BME280;38519;52.540;13.410;2022-08-01T00:04:28;100546.59;;;21.42;64.42
52625;BME280;38519;52.540;13.410;2022-08-01T00:06:53;100535.16;;;21.45;64.28
52625;BME280;38519;52.540;13.410;2022-08-01T00:09:19;100535.09;;;21.42;64.62
52625;BME280;38519;52.540;13.410;2022-08-01T00:11:44;100536.84;;;21.41;64.50
52625;BME280;38519;52.540;13.410;2022-08-01T00:14:10;100542.09;;;21.38;65.21
52625;BME280;38519;52.540;13.410;2022-08-01T00:16:35;100555.31;;;21.37;65.69
52625;BME280;38519;52.540;13.410;2022-08-01T00:19:01;100548.00;;;21.28;66.41
52625;BME280;38519;52.540;13.410;2022-08-01T00:21:26;100553.25;;;21.26;66.91
52625;BME280;38519;52.540;13.410;2022-08-01T00:23:52;100554.19;;;21.27;67.37
52625;BME280;38519;52.540;13.410;2022-08-01T00:26:17;100556.53;;;21.16;68.23
52625;BME280;38519;52.540;13.410;2022-08-01T00:28:43;100544.09;;;21.15;68.53
52625;BME280;38519;52.540;13.410;2022-08-01T00:31:08;100551.31;;;21.19;68.44
52625;BME280;38519;52.540;13.410;2022-08-01T00:33:33;100548.66;;;21.19;69.57
52625;BME280;38519;52.540;13.410;2022-08-01T00:35:59;100552.03;;;21.14;71.10
52625;BME280;38519;52.540;13.410;2022-08-01T00:38:25;100557.16;;;21.07;71.90
52625;BME280;38519;52.540;13.410;2022-08-01T00:40:51;100555.88;;;20.91;73.91
52625;BME280;38519;52.540;13.410;2022-08-01T00:43:16;100554.53;;;20.76;75.44
52625;BME280;38519;52.540;13.410;2022-08-01T00:45:42;100559.44;;;20.63;76.82
52625;BME280;38519;52.540;13.410;2022-08-01T00:48:07;100550.44;;;20.58;77.37
52625;BME280;38519;52.540;13.410;2022-08-01T00:50:33;100542.34;;;20.53;78.00
52625;BME280;38519;52.540;13.410;2022-08-01T00:52:59;100547.28;;;20.41;78.90
52625;BME280;38519;52.540;13.410;2022-08-01T00:55:26;100542.69;;;20.35;79.71
52625;BME280;38519;52.540;13.410;2022-08-01T00:57:51;100552.25;;;20.30;80.53
52625;BME280;38519;52.540;13.410;2022-08-01T01:00:17;100546.00;;;20.28;80.89
52625;BME280;38519;52.540;13.410;2022-08-01T01:02:42;100543.06;;;20.19;81.16
52625;BME280;38519;52.540;13.410;2022-08-01T01:05:09;100531.41;;;20.14;81.57
52625;BME280;38519;52.540;13.410;2022-08-01T01:08:08;100523.66;;;20.20;81.35
52625;BME280;38519;52.540;13.410;2022-08-01T01:12:55;100526.84;;;20.37;81.01
52625;BME280;38519;52.540;13.410;2022-08-01T01:18:20;100524.78;;;20.28;81.40
52625;BME280;38519;52.540;13.410;2022-08-01T01:20:53;100525.88;;;20.35;81.21
52625;BME280;38519;52.540;13.410;2022-08-01T01:30:51;100525.81;;;20.33;81.59
52625;BME280;38519;52.540;13.410;2022-08-01T01:33:18;100524.13;;;20.35;81.29
52625;BME280;38519;52.540;13.410;2022-08-01T01:35:46;100524.03;;;20.32;81.82
52625;BME280;38519;52.540;13.410;2022-08-01T01:38:18;100526.69;;;20.32;81.63
52625;BME280;38519;52.540;13.410;2022-08-01T01:40:45;100517.91;;;20.35;81.52
52625;BME280;38519;52.540;13.410;2022-08-01T01:43:11;100519.72;;;20.36;81.42
52625;BME280;38519;52.540;13.410;2022-08-01T01:45:37;100510.78;;;20.32;81.66
52625;BME280;38519;52.540;13.410;2022-08-01T01:48:03;100510.09;;;20.40;81.54
52625;BME280;38519;52.540;13.410;2022-08-01T01:50:31;100515.50;;;20.43;81.28
52625;BME280;38519;52.540;13.410;2022-08-01T01:52:57;100514.56;;;20.41;81.10
52625;BME280;38519;52.540;13.410;2022-08-01T01:55:24;100521.59;;;20.38;81.18
52625;BME280;38519;52.540;13.410;2022-08-01T01:57:50;100511.72;;;20.34;81.29
52625;BME280;38519;52.540;13.410;2022-08-01T02:00:16;100514.13;;;20.27;81.91
52625;BME280;38519;52.540;13.410;2022-08-01T02:02:42;100518.31;;;20.18;82.07
52625;BME280;38519;52.540;13.410;2022-08-01T02:05:09;100517.91;;;20.06;82.92
52625;BME280;38519;52.540;13.410;2022-08-01T02:07:35;100518.53;;;19.97;83.44
52625;BME280;38519;52.540;13.410;2022-08-01T02:10:03;100515.91;;;19.97;83.69
52625;BME280;38519;52.540;13.410;2022-08-01T02:12:31;100513.09;;;19.93;83.92
52625;BME280;38519;52.540;13.410;2022-08-01T02:14:58;100522.72;;;19.89;84.33
52625;BME280;38519;52.540;13.410;2022-08-01T02:17:24;100520.16;;;19.92;84.07
52625;BME280;38519;52.540;13.410;2022-08-01T02:19:49;100517.34;;;19.88;84.64
52625;BME280;38519;52.540;13.410;2022-08-01T02:22:19;100523.50;;;19.87;84.53
52625;BME280;38519;52.540;13.410;2022-08-01T02:24:49;100515.69;;;19.91;84.47
52625;BME280;38519;52.540;13.410;2022-08-01T02:27:15;100518.34;;;19.91;84.48
52625;BME280;38519;52.540;13.410;2022-08-01T02:29:53;100521.78;;;19.89;84.79
52625;BME280;38519;52.540;13.410;2022-08-01T02:32:23;100519.97;;;19.86;84.53
52625;BME280;38519;52.540;13.410;2022-08-01T02:34:49;100517.00;;;19.77;85.42
52625;BME280;38519;52.540;13.410;2022-08-01T02:37:16;100509.94;;;19.77;85.14
52625;BME280;38519;52.540;13.410;2022-08-01T02:39:42;100522.34;;;19.78;85.04
52625;BME280;38519;52.540;13.410;2022-08-01T02:42:09;100513.28;;;19.72;85.59
52625;BME280;38519;52.540;13.410;2022-08-01T02:44:38;100518.56;;;19.72;85.63
52625;BME280;38519;52.540;13.410;2022-08-01T02:47:05;100525.44;;;19.65;86.04
52625;BME280;38519;52.540;13.410;2022-08-01T02:49:35;100512.91;;;19.61;86.85
52625;BME280;38519;52.540;13.410;2022-08-01T02:52:02;100517.38;;;19.62;86.73
52625;BME280;38519;52.540;13.410;2022-08-01T02:54:32;100519.09;;;19.60;86.75
52625;BME280;38519;52.540;13.410;2022-08-01T02:57:00;100514.72;;;19.62;87.07
52625;BME280;38519;52.540;13.410;2022-08-01T02:59:26;100522.56;;;19.59;87.75
52625;BME280;38519;52.540;13.410;2022-08-01T03:01:56;100521.47;;;19.52;88.06
52625;BME280;38519;52.540;13.410;2022-08-01T03:04:22;100523.19;;;19.52;88.28
52625;BME280;38519;52.540;13.410;2022-08-01T03:06:48;100523.25;;;19.53;88.35
52625;BME280;38519;52.540;13.410;2022-08-01T03:09:14;100522.31;;;19.51;88.53
52625;BME280;38519;52.540;13.410;2022-08-01T03:11:41;100520.53;;;19.52;88.40
52625;BME280;38519;52.540;13.410;2022-08-01T03:14:08;100520.44;;;19.48;88.67
52625;BME280;38519;52.540;13.410;2022-08-01T03:16:35;100522.38;;;19.53;88.41
52625;BME280;38519;52.540;13.410;2022-08-01T03:19:03;100525.94;;;19.55;88.02
52625;BME280;38519;52.540;13.410;2022-08-01T03:21:29;100530.63;;;19.62;87.33
52625;BME280;38519;52.540;13.410;2022-08-01T03:23:57;100527.19;;;19.66;87.07
52625;BME280;38519;52.540;13.410;2022-08-01T03:26:24;100527.41;;;19.72;86.30
52625;BME280;38519;52.540;13.410;2022-08-01T03:28:51;100533.72;;;19.76;86.37
52625;BME280;38519;52.540;13.410;2022-08-01T03:31:20;100535.47;;;19.75;86.34
52625;BME280;38519;52.540;13.410;2022-08-01T03:33:45;100531.88;;;19.73;86.63
52625;BME280;38519;52.540;13.410;2022-08-01T03:36:10;100533.59;;;19.71;86.75
52625;BME280;38519;52.540;13.410;2022-08-01T03:38:37;100531.72;;;19.69;86.86
52625;BME280;38519;52.540;13.410;2022-08-01T03:41:14;100538.81;;;19.70;87.05
52625;BME280;38519;52.540;13.410;2022-08-01T03:43:45;100531.94;;;19.75;87.25
52625;BME280;38519;52.540;13.410;2022-08-01T03:46:13;100528.59;;;19.80;86.92
52625;BME280;38519;52.540;13.410;2022-08-01T03:48:43;100540.38;;;19.90;86.99
52625;BME280;38519;52.540;13.410;2022-08-01T03:51:12;100538.75;;;19.94;86.90
52625;BME280;38519;52.540;13.410;2022-08-01T03:53:38;100537.84;;;19.93;87.09
52625;BME280;38519;52.540;13.410;2022-08-01T03:56:06;100539.44;;;19.88;87.73
52625;BME280;38519;52.540;13.410;2022-08-01T03:58:33;100541.50;;;19.97;87.01
52625;BME280;38519;52.540;13.410;2022-08-01T04:01:00;100544.28;;;20.01;86.70
52625;BME280;38519;52.540;13.410;2022-08-01T04:03:26;100542.59;;;20.04;86.95
52625;BME280;38519;52.540;13.410;2022-08-01T04:05:52;100535.44;;;20.01;86.78
52625;BME280;38519;52.540;13.410;2022-08-01T04:08:17;100545.09;;;19.99;87.11
52625;BME280;38519;52.540;13.410;2022-08-01T04:10:42;100539.84;;;20.00;87.03
52625;BME280;38519;52.540;13.410;2022-08-01T04:13:08;100542.50;;;20.00;87.42
52625;BME280;38519;52.540;13.410;2022-08-01T04:15:33;100537.25;;;20.02;87.43
52625;BME280;38519;52.540;13.410;2022-08-01T04:17:59;100535.53;;;20.04;87.57
52625;BME280;38519;52.540;13.410;2022-08-01T04:20:24;100538.09;;;20.01;87.92
52625;BME280;38519;52.540;13.410;2022-08-01T04:22:49;100541.59;;;20.00;87.89
52625;BME280;38519;52.540;13.410;2022-08-01T04:25:15;100535.44;;;20.01;88.29
52625;BME280;38519;52.540;13.410;2022-08-01T04:27:43;100539.75;;;19.97;88.53
52625;BME280;38519;52.540;13.410;2022-08-01T04:30:11;100539.75;;;19.97;88.62
52625;BME280;38519;52.540;13.410;2022-08-01T04:32:37;100546.09;;;20.02;88.23
52625;BME280;38519;52.540;13.410;2022-08-01T04:35:05;100539.41;;;20.15;87.64
52625;BME280;38519;52.540;13.410;2022-08-01T04:37:31;100546.88;;;20.29;87.65
52625;BME280;38519;52.540;13.410;2022-08-01T04:39:58;100545.94;;;20.27;87.94
52625;BME280;38519;52.540;13.410;2022-08-01T04:42:24;100555.56;;;20.23;88.58
52625;BME280;38519;52.540;13.410;2022-08-01T04:44:49;100552.72;;;20.17;89.45
52625;BME280;38519;52.540;13.410;2022-08-01T04:47:15;100554.44;;;20.15;89.52
52625;BME280;38519;52.540;13.410;2022-08-01T04:49:41;100557.03;;;20.13;89.89
52625;BME280;38519;52.540;13.410;2022-08-01T04:52:08;100556.16;;;20.14;90.05
52625;BME280;38519;52.540;13.410;2022-08-01T04:54:34;100565.03;;;20.15;89.96
52625;BME280;38519;52.540;13.410;2022-08-01T04:57:06;100566.66;;;20.10;90.20
52625;BME280;38519;52.540;13.410;2022-08-01T04:59:32;100563.91;;;20.07;90.78
52625;BME280;38519;52.540;13.410;2022-08-01T05:02:11;100564.75;;;20.06;90.87
52625;BME280;38519;52.540;13.410;2022-08-01T05:04:37;100561.16;;;20.04;91.09
52625;BME280;38519;52.540;13.410;2022-08-01T05:07:03;100567.84;;;19.92;91.79
52625;BME280;38519;52.540;13.410;2022-08-01T05:09:29;100575.75;;;19.91;92.07
52625;BME280;38519;52.540;13.410;2022-08-01T05:11:59;100571.25;;;19.88;92.68
52625;BME280;38519;52.540;13.410;2022-08-01T05:14:25;100575.59;;;19.86;93.08
52625;BME280;38519;52.540;13.410;2022-08-01T05:16:51;100571.97;;;19.82;93.64
52625;BME280;38519;52.540;13.410;2022-08-01T05:19:16;100576.19;;;19.77;94.36
52625;BME280;38519;52.540;13.410;2022-08-01T05:21:42;100575.09;;;19.72;96.00
52625;BME280;38519;52.540;13.410;2022-08-01T05:24:07;100583.69;;;19.65;96.71
52625;BME280;38519;52.540;13.410;2022-08-01T05:26:33;100571.03;;;19.56;97.68
52625;BME280;38519;52.540;13.410;2022-08-01T05:28:58;100567.66;;;19.60;97.42
52625;BME280;38519;52.540;13.410;2022-08-01T05:31:24;100576.31;;;19.56;99.34
52625;BME280;38519;52.540;13.410;2022-08-01T05:33:49;100572.28;;;19.68;98.04
52625;BME280;38519;52.540;13.410;2022-08-01T05:36:15;100570.63;;;19.70;97.50
52625;BME280;38519;52.540;13.410;2022-08-01T05:38:40;100571.75;;;19.76;97.13
52625;BME280;38519;52.540;13.410;2022-08-01T05:41:06;100575.56;;;19.85;96.77
52625;BME280;38519;52.540;13.410;2022-08-01T05:43:31;100570.94;;;19.79;96.97
52625;BME280;38519;52.540;13.410;2022-08-01T05:45:56;100579.09;;;19.85;96.58
52625;BME280;38519;52.540;13.410;2022-08-01T05:48:23;100579.50;;;19.97;95.88
52625;BME280;38519;52.540;13.410;2022-08-01T05:50:48;100570.97;;;20.08;94.90
52625;BME280;38519;52.540;13.410;2022-08-01T05:53:14;100580.00;;;20.13;94.53
52625;BME280;38519;52.540;13.410;2022-08-01T05:55:40;100576.00;;;20.27;93.69
52625;BME280;38519;52.540;13.410;2022-08-01T05:58:05;100577.19;;;20.35;92.90
52625;BME280;38519;52.540;13.410;2022-08-01T06:00:30;100582.53;;;20.37;92.46
52625;BME280;38519;52.540;13.410;2022-08-01T06:02:56;100590.38;;;20.34;92.64
52625;BME280;38519;52.540;13.410;2022-08-01T06:05:21;100592.84;;;20.28;92.80
52625;BME280;38519;52.540;13.410;2022-08-01T06:07:46;100595.19;;;20.18;92.78
52625;BME280;38519;52.540;13.410;2022-08-01T06:10:12;100596.66;;;20.09;93.86
52625;BME280;38519;52.540;13.410;2022-08-01T06:12:37;100594.88;;;20.09;93.59
52625;BME280;38519;52.540;13.410;2022-08-01T06:15:06;100596.66;;;20.09;93.40
52625;BME280;38519;52.540;13.410;2022-08-01T06:17:31;100594.88;;;20.09;94.32
52625;BME280;38519;52.540;13.410;2022-08-01T06:19:57;100593.53;;;20.22;92.99
52625;BME280;38519;52.540;13.410;2022-08-01T06:22:22;100596.38;;;20.28;92.55
52625;BME280;38519;52.540;13.410;2022-08-01T06:24:48;100595.59;;;20.31;92.35
52625;BME280;38519;52.540;13.410;2022-08-01T06:27:14;100600.06;;;20.33;91.97
52625;BME280;38519;52.540;13.410;2022-08-01T06:29:39;100602.56;;;20.29;92.15
52625;BME280;38519;52.540;13.410;2022-08-01T06:32:04;100609.53;;;20.25;92.78
52625;BME280;38519;52.540;13.410;2022-08-01T06:34:31;100607.09;;;20.31;91.76
52625;BME280;38519;52.540;13.410;2022-08-01T06:36:57;100601.09;;;20.37;91.63
52625;BME280;38519;52.540;13.410;2022-08-01T06:39:22;100594.25;;;20.45;90.91
52625;BME280;38519;52.540;13.410;2022-08-01T06:41:47;100599.88;;;20.56;90.39
52625;BME280;38519;52.540;13.410;2022-08-01T06:44:13;100601.78;;;20.60;89.63
52625;BME280;38519;52.540;13.410;2022-08-01T06:46:38;100603.97;;;20.73;89.27
52625;BME280;38519;52.540;13.410;2022-08-01T06:49:04;100614.16;;;20.88;87.99
52625;BME280;38519;52.540;13.410;2022-08-01T06:51:30;100614.97;;;20.86;88.44
52625;BME280;38519;52.540;13.410;2022-08-01T06:53:55;100610.72;;;20.92;88.00
52625;BME280;38519;52.540;13.410;2022-08-01T06:56:20;100612.31;;;20.86;87.98
52625;BME280;38519;52.540;13.410;2022-08-01T06:58:46;100608.94;;;20.91;87.36
52625;BME280;38519;52.540;13.410;2022-08-01T07:01:11;100618.31;;;20.80;88.06
52625;BME280;38519;52.540;13.410;2022-08-01T07:03:37;100616.34;;;20.73;87.73
52625;BME280;38519;52.540;13.410;2022-08-01T07:06:03;100610.06;;;20.69;87.95
52625;BME280;38519;52.540;13.410;2022-08-01T07:08:28;100611.84;;;20.70;88.02
52625;BME280;38519;52.540;13.410;2022-08-01T07:10:53;100611.28;;;20.81;87.70
52625;BME280;38519;52.540;13.410;2022-08-01T07:13:19;100615.56;;;20.76;87.52
52625;BME280;38519;52.540;13.410;2022-08-01T07:15:48;100611.94;;;20.73;86.95
52625;BME280;38519;52.540;13.410;2022-08-01T07:18:13;100615.50;;;20.74;86.94
52625;BME280;38519;52.540;13.410;2022-08-01T07:20:39;100614.78;;;20.80;87.07
52625;BME280;38519;52.540;13.410;2022-08-01T07:23:04;100620.09;;;20.80;86.78
52625;BME280;38519;52.540;13.410;2022-08-01T07:25:30;100623.63;;;20.80;86.65
52625;BME280;38519;52.540;13.410;2022-08-01T07:27:55;100619.09;;;20.76;87.01
52625;BME280;38519;52.540;13.410;2022-08-01T07:30:21;100618.88;;;20.68;87.61
52625;BME280;38519;52.540;13.410;2022-08-01T07:32:46;100620.09;;;20.52;88.35
52625;BME280;38519;52.540;13.410;2022-08-01T07:35:12;100624.19;;;20.41;89.62
52625;BME280;38519;52.540;13.410;2022-08-01T07:37:37;100628.34;;;20.33;90.14
52625;BME280;38519;52.540;13.410;2022-08-01T07:40:03;100625.78;;;20.36;90.41
52625;BME280;38519;52.540;13.410;2022-08-01T07:42:30;100627.03;;;20.47;89.51
52625;BME280;38519;52.540;13.410;2022-08-01T07:44:55;100629.09;;;20.58;88.37
52625;BME280;38519;52.540;13.410;2022-08-01T07:47:24;100633.22;;;20.75;88.19
52625;BME280;38519;52.540;13.410;2022-08-01T07:49:51;100635.88;;;21.05;85.77
52625;BME280;38519;52.540;13.410;2022-08-01T07:52:16;100636.38;;;21.22;84.51
52625;BME280;38519;52.540;13.410;2022-08-01T07:54:42;100637.06;;;21.17;85.35
52625;BME280;38519;52.540;13.410;2022-08-01T07:57:07;100647.53;;;21.10;83.17
52625;BME280;38519;52.540;13.410;2022-08-01T07:59:32;100642.81;;;21.00;83.48
52625;BME280;38519;52.540;13.410;2022-08-01T08:01:58;100650.41;;;20.88;84.51
52625;BME280;38519;52.540;13.410;2022-08-01T08:04:24;100649.56;;;20.89;84.52
52625;BME280;38519;52.540;13.410;2022-08-01T08:06:50;100647.41;;;20.76;84.76
52625;BME280;38519;52.540;13.410;2022-08-01T08:09:16;100643.44;;;20.63;85.71
52625;BME280;38519;52.540;13.410;2022-08-01T08:11:42;100645.94;;;20.58;85.96
52625;BME280;38519;52.540;13.410;2022-08-01T08:14:08;100649.38;;;20.55;86.45
52625;BME280;38519;52.540;13.410;2022-08-01T08:16:33;100649.19;;;20.49;86.97
52625;BME280;38519;52.540;13.410;2022-08-01T08:18:59;100650.22;;;20.53;86.85
52625;BME280;38519;52.540;13.410;2022-08-01T08:21:24;100652.50;;;20.69;86.41
52625;BME280;38519;52.540;13.410;2022-08-01T08:23:50;100657.66;;;20.94;85.14
52625;BME280;38519;52.540;13.410;2022-08-01T08:26:33;100656.63;;;21.19;82.11
52625;BME280;38519;52.540;13.410;2022-08-01T08:28:59;100668.66;;;21.38;80.04
52625;BME280;38519;52.540;13.410;2022-08-01T08:31:24;100659.56;;;21.60;79.55
52625;BME280;38519;52.540;13.410;2022-08-01T08:33:50;100658.88;;;21.67;78.66
52625;BME280;38519;52.540;13.410;2022-08-01T08:36:15;100654.78;;;21.80;77.82
52625;BME280;38519;52.540;13.410;2022-08-01T08:38:40;100658.53;;;21.88;76.98
52625;BME280;38519;52.540;13.410;2022-08-01T08:41:06;100662.41;;;22.01;76.32
52625;BME280;38519;52.540;13.410;2022-08-01T08:43:32;100658.09;;;22.06;74.96
52625;BME280;38519;52.540;13.410;2022-08-01T08:45:57;100661.72;;;22.10;74.62
52625;BME280;38519;52.540;13.410;2022-08-01T08:48:23;100666.75;;;21.97;74.17
52625;BME280;38519;52.540;13.410;2022-08-01T08:50:49;100672.47;;;21.79;75.16
52625;BME280;38519;52.540;13.410;2022-08-01T08:53:15;100668.59;;;21.67;76.02
52625;BME280;38519;52.540;13.410;2022-08-01T08:55:42;100668.47;;;21.62;75.96
52625;BME280;38519;52.540;13.410;2022-08-01T08:58:10;100671.06;;;21.60;75.71
52625;BME280;38519;52.540;13.410;2022-08-01T09:00:38;100673.94;;;21.68;75.36
52625;BME280;38519;52.540;13.410;2022-08-01T09:03:04;100671.84;;;21.88;74.52
52625;BME280;38519;52.540;13.410;2022-08-01T09:05:30;100677.59;;;22.07;72.50
52625;BME280;38519;52.540;13.410;2022-08-01T09:07:55;100671.44;;;22.43;71.51
52625;BME280;38519;52.540;13.410;2022-08-01T09:10:21;100677.63;;;22.80;69.25
52625;BME280;38519;52.540;13.410;2022-08-01T09:13:03;100675.22;;;22.52;70.70
52625;BME280;38519;52.540;13.410;2022-08-01T09:18:38;100679.78;;;22.58;70.05
52625;BME280;38519;52.540;13.410;2022-08-01T09:23:41;100677.25;;;22.64;69.82
52625;BME280;38519;52.540;13.410;2022-08-01T09:26:09;100679.00;;;22.62;69.73
52625;BME280;38519;52.540;13.410;2022-08-01T09:28:36;100689.75;;;22.67;69.34
52625;BME280;38519;52.540;13.410;2022-08-01T09:31:08;100696.03;;;22.70;69.74
52625;BME280;38519;52.540;13.410;2022-08-01T09:36:19;100703.66;;;22.55;70.29
52625;BME280;38519;52.540;13.410;2022-08-01T09:38:45;100695.47;;;22.46;71.27
52625;BME280;38519;52.540;13.410;2022-08-01T09:41:11;100703.72;;;22.22;71.77
52625;BME280;38519;52.540;13.410;2022-08-01T09:43:36;100702.38;;;22.04;73.01
52625;BME280;38519;52.540;13.410;2022-08-01T09:46:11;100711.97;;;21.99;73.96
52625;BME280;38519;52.540;13.410;2022-08-01T09:48:37;100711.28;;;22.06;72.76
52625;BME280;38519;52.540;13.410;2022-08-01T09:51:05;100710.44;;;22.07;72.92
52625;BME280;38519;52.540;13.410;2022-08-01T09:53:42;100715.84;;;22.10;72.11
52625;BME280;38519;52.540;13.410;2022-08-01T09:56:09;100714.19;;;22.15;72.42
52625;BME280;38519;52.540;13.410;2022-08-01T09:58:48;100722.34;;;22.22;72.36
52625;BME280;38519;52.540;13.410;2022-08-01T10:01:14;100718.50;;;22.12;72.76
52625;BME280;38519;52.540;13.410;2022-08-01T10:03:39;100726.56;;;22.15;73.30
52625;BME280;38519;52.540;13.410;2022-08-01T10:06:25;100726.34;;;22.06;72.98
52625;BME280;38519;52.540;13.410;2022-08-01T10:08:50;100725.09;;;21.91;73.70
52625;BME280;38519;52.540;13.410;2022-08-01T10:11:16;100722.88;;;21.76;74.97
52625;BME280;38519;52.540;13.410;2022-08-01T10:13:41;100730.09;;;21.80;75.31
52625;BME280;38519;52.540;13.410;2022-08-01T10:16:07;100734.41;;;21.75;75.25
52625;BME280;38519;52.540;13.410;2022-08-01T10:18:34;100736.13;;;21.75;75.35
52625;BME280;38519;52.540;13.410;2022-08-01T10:21:00;100735.06;;;21.68;75.68
52625;BME280;38519;52.540;13.410;2022-08-01T10:23:26;100743.88;;;21.66;76.02
52625;BME280;38519;52.540;13.410;2022-08-01T10:25:53;100742.19;;;21.69;76.02
52625;BME280;38519;52.540;13.410;2022-08-01T10:28:19;100743.09;;;21.70;75.91
52625;BME280;38519;52.540;13.410;2022-08-01T10:30:45;100749.19;;;21.66;76.22
52625;BME280;38519;52.540;13.410;2022-08-01T10:33:12;100739.31;;;21.61;76.46
52625;BME280;38519;52.540;13.410;2022-08-01T10:35:39;100739.41;;;21.64;76.13
52625;BME280;38519;52.540;13.410;2022-08-01T10:38:05;100749.38;;;21.72;75.83
52625;BME280;38519;52.540;13.410;2022-08-01T10:40:30;100748.94;;;21.88;75.56
52625;BME280;38519;52.540;13.410;2022-08-01T10:42:56;100744.13;;;22.08;74.04
52625;BME280;38519;52.540;13.410;2022-08-01T10:45:22;100745.13;;;22.13;73.79
52625;BME280;38519;52.540;13.410;2022-08-01T10:50:23;100749.22;;;22.00;74.08
52625;BME280;38519;52.540;13.410;2022-08-01T10:58:36;100748.47;;;22.05;74.38
52625;BME280;38519;52.540;13.410;2022-08-01T11:01:38;100747.16;;;22.22;74.09
52625;BME280;38519;52.540;13.410;2022-08-01T11:04:00;100760.34;;;22.51;73.36
52625;BME280;38519;52.540;13.410;2022-08-01T11:08:57;100755.34;;;22.65;71.50
52625;BME280;38519;52.540;13.410;2022-08-01T11:11:23;100755.59;;;22.76;71.31
52625;BME280;38519;52.540;13.410;2022-08-01T11:16:27;100757.56;;;22.46;72.76
52625;BME280;38519;52.540;13.410;2022-08-01T11:18:53;100760.69;;;22.30;72.71
52625;BME280;38519;52.540;13.410;2022-08-01T11:21:19;100766.16;;;22.03;73.62
52625;BME280;38519;52.540;13.410;2022-08-01T11:23:49;100768.16;;;21.79;74.88
52625;BME280;38519;52.540;13.410;2022-08-01T11:26:15;100774.09;;;21.40;78.66
52625;BME280;38519;52.540;13.410;2022-08-01T11:28:41;100791.00;;;21.14;81.51
52625;BME280;38519;52.540;13.410;2022-08-01T11:38:36;100795.16;;;21.05;84.30
52625;BME280;38519;52.540;13.410;2022-08-01T11:52:00;100794.94;;;22.19;75.96
52625;BME280;38519;52.540;13.410;2022-08-01T11:54:29;100797.09;;;22.32;75.06
52625;BME280;38519;52.540;13.410;2022-08-01T11:56:55;100795.75;;;22.48;74.53
52625;BME280;38519;52.540;13.410;2022-08-01T11:59:21;100797.91;;;22.63;73.27
52625;BME280;38519;52.540;13.410;2022-08-01T12:01:47;100794.06;;;22.88;71.57
52625;BME280;38519;52.540;13.410;2022-08-01T12:04:12;100790.34;;;23.18;69.67
52625;BME280;38519;52.540;13.410;2022-08-01T12:06:37;100791.63;;;23.36;68.66
52625;BME280;38519;52.540;13.410;2022-08-01T12:11:41;100791.03;;;23.49;67.94
52625;BME280;38519;52.540;13.410;2022-08-01T12:14:07;100783.25;;;23.60;67.55
52625;BME280;38519;52.540;13.410;2022-08-01T12:16:32;100784.50;;;23.35;68.27
52625;BME280;38519;52.540;13.410;2022-08-01T12:18:57;100788.22;;;23.05;69.21
52625;BME280;38519;52.540;13.410;2022-08-01T12:21:22;100786.34;;;22.63;71.08
52625;BME280;38519;52.540;13.410;2022-08-01T12:23:59;100794.72;;;22.43;72.91
52625;BME280;38519;52.540;13.410;2022-08-01T12:26:38;100804.53;;;22.44;73.41
52625;BME280;38519;52.540;13.410;2022-08-01T12:29:03;100800.13;;;22.46;74.23
52625;BME280;38519;52.540;13.410;2022-08-01T12:31:32;100795.22;;;22.62;73.77
52625;BME280;38519;52.540;13.410;2022-08-01T12:33:58;100794.25;;;22.96;73.15
52625;BME280;38519;52.540;13.410;2022-08-01T12:36:29;100793.97;;;23.22;72.10
52625;BME280;38519;52.540;13.410;2022-08-01T12:38:56;100801.22;;;23.27;73.51
52625;BME280;38519;52.540;13.410;2022-08-01T12:41:24;100791.59;;;23.34;73.19
52625;BME280;38519;52.540;13.410;2022-08-01T12:43:50;100792.38;;;23.30;74.29
52625;BME280;38519;52.540;13.410;2022-08-01T12:46:15;100796.50;;;23.55;72.13
52625;BME280;38519;52.540;13.410;2022-08-01T12:48:42;100794.13;;;23.71;72.08
52625;BME280;38519;52.540;13.410;2022-08-01T12:51:08;100790.75;;;23.79;69.81
52625;BME280;38519;52.540;13.410;2022-08-01T12:53:35;100790.31;;;24.00;69.16
52625;BME280;38519;52.540;13.410;2022-08-01T12:56:00;100793.66;;;24.38;67.10
52625;BME280;38519;52.540;13.410;2022-08-01T12:58:32;100792.13;;;25.71;60.92
52625;BME280;38519;52.540;13.410;2022-08-01T13:01:05;100781.56;;;25.82;59.09
52625;BME280;38519;52.540;13.410;2022-08-01T13:03:31;100792.03;;;24.98;60.63
52625;BME280;38519;52.540;13.410;2022-08-01T13:05:57;100802.28;;;24.21;62.82
52625;BME280;38519;52.540;13.410;2022-08-01T13:08:24;100794.13;;;23.71;64.89
52625;BME280;38519;52.540;13.410;2022-08-01T13:10:49;100792.13;;;23.19;67.79
52625;BME280;38519;52.540;13.410;2022-08-01T13:13:16;100801.28;;;22.92;70.38
52625;BME280;38519;52.540;13.410;2022-08-01T13:15:42;100797.88;;;22.62;71.99
52625;BME280;38519;52.540;13.410;2022-08-01T13:18:27;100803.88;;;22.54;74.48
52625;BME280;38519;52.540;13.410;2022-08-01T13:21:11;100797.88;;;22.62;72.91
52625;BME280;38519;52.540;13.410;2022-08-01T13:23:37;100789.50;;;22.83;72.41
52625;BME280;38519;52.540;13.410;2022-08-01T13:26:03;100792.50;;;22.98;72.21
52625;BME280;38519;52.540;13.410;2022-08-01T13:28:29;100792.03;;;23.13;72.16
52625;BME280;38519;52.540;13.410;2022-08-01T13:31:00;100792.22;;;23.22;70.74
52625;BME280;38519;52.540;13.410;2022-08-01T13:33:28;100802.94;;;23.25;69.73
52625;BME280;38519;52.540;13.410;2022-08-01T13:35:54;100805.53;;;23.22;67.90